createdAt,value
2019-01-02T00:00:33.617Z,99777.38
2019-01-02T00:03:02.335Z,99774.59
2019-01-02T00:05:31.764Z,99778.63
2019-01-02T00:08:00.273Z,99775.32
2019-01-02T00:10:29.910Z,99773.69
2019-01-02T00:12:59.238Z,99767.61
2019-01-02T00:15:48.478Z,99769.80
2019-01-02T00:18:17.806Z,99768.91
2019-01-02T00:23:40.777Z,99755.52
2019-01-02T00:26:10.220Z,99755.12
2019-01-02T00:28:39.896Z,99751.81
2019-01-02T00:31:08.724Z,99746.64
2019-01-02T00:33:38.038Z,99749.56
2019-01-02T00:36:27.274Z,99744.73
2019-01-02T00:38:56.619Z,99742.31
2019-01-02T00:41:25.041Z,99740.26
2019-01-02T00:43:53.674Z,99730.34
2019-01-02T00:46:22.210Z,99730.37
2019-01-02T00:48:51.524Z,99724.85
2019-01-02T00:51:20.858Z,99726.73
2019-01-02T00:54:10.069Z,99724.13
2019-01-02T00:56:38.606Z,99714.06
2019-01-02T00:59:27.830Z,99715.68
2019-01-02T01:01:57.154Z,99710.47
2019-01-02T01:04:25.990Z,99707.83
2019-01-02T01:06:54.529Z,99704.23
2019-01-02T01:09:43.911Z,99704.11
2019-01-02T01:12:13.222Z,99694.63
2019-01-02T01:14:42.568Z,99696.80
2019-01-02T01:17:11.910Z,99688.23
2019-01-02T01:19:41.242Z,99684.35
2019-01-02T01:22:30.466Z,99682.38
2019-01-02T01:24:58.999Z,99676.59
2019-01-02T01:27:27.527Z,99666.66
2019-01-02T01:29:56.383Z,99660.64
2019-01-02T01:32:25.705Z,99655.98
2019-01-02T01:35:16.210Z,99652.54
2019-01-02T01:38:04.406Z,99651.79
2019-01-02T01:40:33.728Z,99642.43
2019-01-02T01:43:03.055Z,99641.95
2019-01-02T01:45:32.743Z,99640.65
2019-01-02T01:48:01.247Z,99634.97
2019-01-02T01:50:29.779Z,99623.30
2019-01-02T01:52:58.608Z,99628.53
2019-01-02T01:55:27.038Z,99622.17
2019-01-02T01:58:16.270Z,99617.98
2019-01-02T02:01:05.519Z,99619.22
2019-01-02T02:03:34.838Z,99615.56
2019-01-02T02:06:04.196Z,99602.12
2019-01-02T02:08:53.424Z,99601.91
2019-01-02T02:11:22.760Z,99591.73
2019-01-02T02:13:52.079Z,99588.65
2019-01-02T02:16:41.308Z,99588.20
2019-01-02T02:19:30.531Z,99581.36
2019-01-02T02:21:59.904Z,99575.64
2019-01-02T02:24:28.318Z,99575.91
2019-01-02T02:27:17.559Z,99571.34
2019-01-02T02:29:46.870Z,99560.05
2019-01-02T02:32:16.200Z,99555.79
2019-01-02T02:34:44.833Z,99556.59
2019-01-02T02:37:13.361Z,99552.11
2019-01-02T02:39:42.698Z,99545.58
2019-01-02T02:42:12.534Z,99549.20
2019-01-02T02:44:41.347Z,99547.88
2019-01-02T02:47:10.671Z,99556.86
2019-01-02T02:49:40.000Z,99554.75
2019-01-02T02:52:09.321Z,99550.80
2019-01-02T02:54:38.641Z,99550.78
2019-01-02T02:57:07.958Z,99552.09
2019-01-02T02:59:37.276Z,99555.16
2019-01-02T03:02:26.495Z,99550.20
2019-01-02T03:04:55.021Z,99535.51
2019-01-02T03:07:23.752Z,99546.64
2019-01-02T03:10:14.252Z,99550.78
2019-01-02T03:12:43.319Z,99548.71
2019-01-02T03:15:32.528Z,99549.68
2019-01-02T03:18:21.760Z,99548.33
2019-01-02T03:20:50.278Z,99541.11
2019-01-02T03:23:19.630Z,99546.14
2019-01-02T03:25:48.451Z,99541.88
2019-01-02T03:28:37.711Z,99534.09
2019-01-02T03:31:07.340Z,99537.66
2019-01-02T03:33:36.146Z,99543.27
2019-01-02T03:36:04.668Z,99538.53
2019-01-02T03:38:33.995Z,99538.93
2019-01-02T03:41:03.365Z,99530.77
2019-01-02T03:43:32.800Z,99536.81
2019-01-02T03:46:02.135Z,99534.90
2019-01-02T03:48:33.746Z,99543.47
2019-01-02T03:51:02.471Z,99537.67
2019-01-02T03:53:31.799Z,99534.66
2019-01-02T03:56:00.431Z,99533.00
2019-01-02T03:58:29.044Z,99535.53
2019-01-02T04:00:57.480Z,99537.25
2019-01-02T04:03:25.910Z,99536.92
2019-01-02T04:05:55.247Z,99537.72
2019-01-02T04:08:24.849Z,99531.36
2019-01-02T04:10:54.200Z,99539.86
2019-01-02T04:13:23.615Z,99528.28
2019-01-02T04:15:52.043Z,99526.98
2019-01-02T04:18:21.361Z,99517.53
2019-01-02T04:20:50.713Z,99522.23
2019-01-02T04:23:19.231Z,99523.50
2019-01-02T04:25:48.579Z,99517.77
2019-01-02T04:28:17.590Z,99511.70
2019-01-02T04:30:46.215Z,99514.45
2019-01-02T04:33:15.556Z,99514.84
2019-01-02T04:35:44.898Z,99521.36
2019-01-02T04:38:14.218Z,99515.85
2019-01-02T04:40:43.572Z,99519.26
2019-01-02T04:43:12.911Z,99515.05
2019-01-02T04:45:41.324Z,99504.34
2019-01-02T04:48:09.852Z,99505.25
2019-01-02T04:50:39.187Z,99517.72
2019-01-02T04:53:08.519Z,99512.06
2019-01-02T04:55:37.839Z,99511.18
2019-01-02T04:58:07.160Z,99505.81
2019-01-02T05:00:36.478Z,99502.27
2019-01-02T05:03:05.829Z,99507.03
2019-01-02T05:05:35.158Z,99499.13
2019-01-02T05:08:04.495Z,99503.71
2019-01-02T05:10:33.041Z,99504.58
2019-01-02T05:13:02.376Z,99496.50
2019-01-02T05:15:31.715Z,99493.59
2019-01-02T05:18:01.042Z,99491.88
2019-01-02T05:20:30.375Z,99487.97
2019-01-02T05:22:59.709Z,99483.74
2019-01-02T05:25:29.029Z,99482.52
2019-01-02T05:27:58.385Z,99484.19
2019-01-02T05:30:26.906Z,99482.02
2019-01-02T05:32:56.239Z,99485.00
2019-01-02T05:35:24.758Z,99480.78
2019-01-02T05:37:54.017Z,99482.06
2019-01-02T05:40:42.517Z,99480.34
2019-01-02T05:43:11.853Z,99482.80
2019-01-02T05:45:41.220Z,99475.55
2019-01-02T05:48:09.738Z,99473.89
2019-01-02T05:50:39.076Z,99469.23
2019-01-02T05:53:07.587Z,99470.98
2019-01-02T05:55:36.903Z,99474.40
2019-01-02T05:58:05.427Z,99473.96
2019-01-02T06:00:39.694Z,99476.55
2019-01-02T06:03:23.188Z,99481.28
2019-01-02T06:05:52.603Z,99480.86
2019-01-02T06:08:21.942Z,99484.69
2019-01-02T06:10:50.703Z,99477.81
2019-01-02T06:13:20.047Z,99472.23
2019-01-02T06:15:49.430Z,99469.20
2019-01-02T06:18:18.766Z,99470.06
2019-01-02T06:20:47.299Z,99463.60
2019-01-02T06:23:16.629Z,99463.98
2019-01-02T06:25:45.979Z,99458.86
2019-01-02T06:28:15.308Z,99460.98
2019-01-02T06:30:44.716Z,99464.83
2019-01-02T06:33:14.103Z,99468.66
2019-01-02T06:35:43.426Z,99469.92
2019-01-02T06:38:12.755Z,99466.91
2019-01-02T06:40:42.111Z,99465.59
2019-01-02T06:43:10.745Z,99464.73
2019-01-02T06:45:40.086Z,99467.98
2019-01-02T06:48:08.630Z,99466.91
2019-01-02T06:50:37.255Z,99473.34
2019-01-02T06:53:06.652Z,99471.59
2019-01-02T06:55:36.136Z,99473.67
2019-01-02T06:58:05.464Z,99474.60
2019-01-02T07:00:37.842Z,99465.98
2019-01-02T07:03:06.473Z,99467.67
2019-01-02T07:05:55.167Z,99463.33
2019-01-02T07:08:24.546Z,99456.47
2019-01-02T07:10:53.966Z,99455.51
2019-01-02T07:13:23.310Z,99457.49
2019-01-02T07:15:51.931Z,99453.46
2019-01-02T07:18:20.451Z,99455.48
2019-01-02T07:20:49.766Z,99451.89
2019-01-02T07:23:19.105Z,99448.62
2019-01-02T07:25:48.462Z,99452.31
2019-01-02T07:28:17.006Z,99438.77
2019-01-02T07:30:45.531Z,99439.45
2019-01-02T07:33:14.982Z,99433.69
2019-01-02T07:36:23.212Z,99429.02
2019-01-02T07:39:30.432Z,99425.73
2019-01-02T07:42:38.565Z,99427.66
2019-01-02T07:45:46.711Z,99422.51
2019-01-02T07:48:53.959Z,99418.98
2019-01-02T07:52:01.219Z,99427.30
2019-01-02T07:54:54.345Z,99427.44
2019-01-02T07:58:02.411Z,99424.38
2019-01-02T08:01:09.835Z,99418.70
2019-01-02T08:04:17.926Z,99417.64
2019-01-02T08:07:28.017Z,99404.87
2019-01-02T08:10:31.227Z,99396.83
2019-01-02T08:13:39.337Z,99393.39
2019-01-02T08:16:50.452Z,99396.47
2019-01-02T08:19:57.738Z,99395.89
2019-01-02T08:22:58.277Z,99395.56
2019-01-02T08:25:54.714Z,99393.69
2019-01-02T08:29:01.965Z,99382.16
2019-01-02T08:32:09.233Z,99381.84
2019-01-02T08:35:10.771Z,99365.55
2019-01-02T08:38:18.277Z,99358.78
2019-01-02T08:41:15.329Z,99363.02
2019-01-02T08:44:23.374Z,99352.95
2019-01-02T08:47:24.681Z,99368.95
2019-01-02T08:50:26.901Z,99368.16
2019-01-02T08:53:34.365Z,99355.36
2019-01-02T08:56:41.588Z,99350.44
2019-01-02T08:59:49.657Z,99339.05
2019-01-02T09:02:56.916Z,99342.86
2019-01-02T09:06:04.214Z,99336.75
2019-01-02T09:09:11.393Z,99327.96
2019-01-02T09:12:05.920Z,99318.26
2019-01-02T09:15:14.065Z,99301.45
2019-01-02T09:18:22.716Z,99298.55
2019-01-02T09:21:30.670Z,99292.63
2019-01-02T09:24:24.257Z,99279.13
2019-01-02T09:27:06.115Z,99277.59
2019-01-02T09:30:13.973Z,99267.82
2019-01-02T09:33:11.494Z,99257.70
2019-01-02T09:36:18.814Z,99262.19
2019-01-02T09:39:22.024Z,99253.30
2019-01-02T09:42:29.506Z,99258.91
2019-01-02T09:45:36.763Z,99256.74
2019-01-02T09:48:44.113Z,99250.28
2019-01-02T09:51:53.180Z,99246.67
2019-01-02T09:55:01.527Z,99229.88
2019-01-02T09:58:12.042Z,99228.59
2019-01-02T10:00:54.285Z,99222.08
2019-01-02T10:04:02.410Z,99223.00
2019-01-02T10:07:09.647Z,99220.41
2019-01-02T10:10:16.915Z,99218.41
2019-01-02T10:13:13.538Z,99219.03
2019-01-02T10:16:12.190Z,99210.54
2019-01-02T10:19:15.996Z,99204.36
2019-01-02T10:22:23.314Z,99201.59
2019-01-02T10:25:16.513Z,99190.41
2019-01-02T10:28:24.619Z,99191.91
2019-01-02T10:31:31.985Z,99191.13
2019-01-02T10:34:39.156Z,99189.92
2019-01-02T10:37:35.362Z,99195.04
2019-01-02T10:40:42.576Z,99198.11
2019-01-02T10:43:50.687Z,99194.91
2019-01-02T10:46:42.026Z,99187.03
2019-01-02T10:49:37.996Z,99178.25
2019-01-02T10:52:46.785Z,99182.16
2019-01-02T10:55:48.994Z,99174.11
2019-01-02T10:58:46.470Z,99170.91
2019-01-02T11:01:54.105Z,99178.11
2019-01-02T11:05:01.425Z,99168.20
2019-01-02T11:07:53.896Z,99154.50
2019-01-02T11:11:02.029Z,99155.58
2019-01-02T11:14:10.228Z,99147.81
2019-01-02T11:17:05.857Z,99132.16
2019-01-02T11:20:13.112Z,99132.81
2019-01-02T11:23:20.423Z,99124.98
2019-01-02T11:26:28.529Z,99118.44
2019-01-02T11:29:35.811Z,99118.03
2019-01-02T11:32:44.062Z,99110.48
2019-01-02T11:35:37.938Z,99100.30
2019-01-02T11:38:30.798Z,99099.39
2019-01-02T11:41:39.307Z,99085.59
2019-01-02T11:44:46.562Z,99085.49
2019-01-02T11:47:15.003Z,99076.93
2019-01-02T11:49:44.340Z,99074.36
2019-01-02T11:52:13.688Z,99069.55
2019-01-02T11:54:43.020Z,99059.00
2019-01-02T11:57:11.563Z,99057.21
2019-01-02T11:59:40.894Z,99058.63
2019-01-02T12:02:09.365Z,99062.92
2019-01-02T12:04:37.846Z,99049.95
2019-01-02T12:07:07.195Z,99046.51
2019-01-02T12:09:36.530Z,99050.02
2019-01-02T12:12:05.869Z,99050.68
2019-01-02T12:14:35.186Z,99051.32
2019-01-02T12:17:04.523Z,99053.55
2019-01-02T12:19:33.849Z,99051.47
2019-01-02T12:22:02.280Z,99049.12
2019-01-02T12:24:30.899Z,99059.62
2019-01-02T12:27:00.222Z,99042.45
2019-01-02T12:29:28.754Z,99053.30
2019-01-02T12:31:58.105Z,99056.02
2019-01-02T12:34:27.459Z,99056.35
2019-01-02T12:36:56.785Z,99051.33
2019-01-02T12:39:25.453Z,99052.95
2019-01-02T12:41:54.823Z,99047.39
2019-01-02T12:44:24.188Z,99050.33
2019-01-02T12:46:52.713Z,99049.40
2019-01-02T12:49:21.433Z,99048.97
2019-01-02T12:51:50.821Z,99049.87
2019-01-02T12:54:20.307Z,99054.50
2019-01-02T12:56:49.653Z,99053.91
2019-01-02T12:59:38.383Z,99047.39
2019-01-02T13:02:46.720Z,99051.34
2019-01-02T13:05:54.002Z,99056.83
2019-01-02T13:09:01.365Z,99056.05
2019-01-02T13:12:08.795Z,99059.44
2019-01-02T13:15:16.150Z,99052.77
2019-01-02T13:18:23.515Z,99056.28
2019-01-02T13:21:31.572Z,99060.60
2019-01-02T13:24:39.354Z,99068.17
2019-01-02T13:27:22.688Z,99063.61
2019-01-02T13:30:30.056Z,99057.20
2019-01-02T13:33:37.473Z,99057.50
2019-01-02T13:36:24.021Z,99057.95
2019-01-02T13:39:20.528Z,99057.77
2019-01-02T13:42:21.040Z,99055.40
2019-01-02T13:45:28.804Z,99052.03
2019-01-02T13:48:15.691Z,99054.83
2019-01-02T13:50:58.766Z,99055.73
2019-01-02T13:53:27.303Z,99053.67
2019-01-02T13:55:56.654Z,99050.84
2019-01-02T13:58:26.007Z,99049.42
2019-01-02T14:00:55.323Z,99058.42
2019-01-02T14:03:24.647Z,99056.06
2019-01-02T14:05:54.063Z,99053.12
2019-01-02T14:08:23.402Z,99053.50
2019-01-02T14:10:52.765Z,99055.48
2019-01-02T14:13:22.140Z,99055.40
2019-01-02T14:15:51.500Z,99048.09
2019-01-02T14:18:20.833Z,99053.39
2019-01-02T14:20:50.183Z,99051.89
2019-01-02T14:23:19.557Z,99050.04
2019-01-02T14:25:49.541Z,99050.99
2019-01-02T14:28:37.497Z,99049.61
2019-01-02T14:31:06.850Z,99050.33
2019-01-02T14:33:36.164Z,99047.57
2019-01-02T14:36:05.515Z,99047.43
2019-01-02T14:38:34.853Z,99049.03
2019-01-02T14:41:04.497Z,99045.67
2019-01-02T14:43:33.026Z,99042.09
2019-01-02T14:46:02.355Z,99049.33
2019-01-02T14:48:30.983Z,99048.21
2019-01-02T14:50:59.945Z,99050.23
2019-01-02T14:53:29.258Z,99045.42
2019-01-02T14:55:58.598Z,99046.98
2019-01-02T14:58:27.955Z,99047.05
2019-01-02T15:00:56.888Z,99045.75
2019-01-02T15:03:26.230Z,99040.08
2019-01-02T15:05:55.551Z,99047.71
2019-01-02T15:08:24.882Z,99046.63
2019-01-02T15:10:54.222Z,99042.77
2019-01-02T15:13:22.758Z,99042.16
2019-01-02T15:15:51.725Z,99041.91
2019-01-02T15:18:21.062Z,99044.14
2019-01-02T15:20:49.596Z,99053.83
2019-01-02T15:23:18.961Z,99047.63
2019-01-02T15:25:48.294Z,99048.33
2019-01-02T15:28:17.626Z,99054.22
2019-01-02T15:30:46.992Z,99051.45
2019-01-02T15:33:15.604Z,99051.54
2019-01-02T15:35:48.941Z,99055.70
2019-01-02T15:38:33.974Z,99057.45
2019-01-02T15:41:03.471Z,99048.51
2019-01-02T15:43:32.887Z,99049.92
2019-01-02T15:46:02.261Z,99046.98
2019-01-02T15:48:31.611Z,99053.59
2019-01-02T15:51:00.926Z,99049.30
2019-01-02T15:53:30.291Z,99051.13
2019-01-02T15:55:59.658Z,99046.30
2019-01-02T15:58:28.287Z,99049.19
2019-01-02T16:00:57.017Z,99048.95
2019-01-02T16:03:26.390Z,99055.81
2019-01-02T16:05:55.011Z,99056.84
2019-01-02T16:08:24.334Z,99057.73
2019-01-02T16:10:53.752Z,99062.16
2019-01-02T16:13:23.102Z,99062.31
2019-01-02T16:15:52.460Z,99065.98
2019-01-02T16:18:21.789Z,99074.04
2019-01-02T16:20:51.512Z,99076.38
2019-01-02T16:23:40.354Z,99085.58
2019-01-02T16:26:09.677Z,99080.73
2019-01-02T16:28:38.217Z,99085.30
2019-01-02T16:31:07.538Z,99087.30
2019-01-02T16:33:36.883Z,99088.95
2019-01-02T16:36:06.226Z,99092.61
2019-01-02T16:38:35.558Z,99094.70
2019-01-02T16:41:04.923Z,99091.21
2019-01-02T16:43:34.257Z,99095.19
2019-01-02T16:46:03.592Z,99089.41
2019-01-02T16:48:32.912Z,99092.48
2019-01-02T16:51:02.252Z,99093.98
2019-01-02T16:53:31.581Z,99092.81
2019-01-02T16:56:00.915Z,99091.03
2019-01-02T16:58:30.258Z,99096.42
2019-01-02T17:00:59.598Z,99101.98
2019-01-02T17:03:29.000Z,99100.33
2019-01-02T17:05:58.361Z,99102.17
2019-01-02T17:08:27.727Z,99104.11
2019-01-02T17:10:57.080Z,99105.86
2019-01-02T17:13:25.612Z,99110.77
2019-01-02T17:15:54.955Z,99112.32
2019-01-02T17:18:24.258Z,99116.33
2019-01-02T17:20:53.583Z,99124.32
2019-01-02T17:23:22.125Z,99123.03
2019-01-02T17:25:51.448Z,99123.83
2019-01-02T17:28:19.960Z,99126.37
2019-01-02T17:30:49.277Z,99126.48
2019-01-02T17:33:18.595Z,99132.41
2019-01-02T17:35:47.934Z,99145.47
2019-01-02T17:38:17.274Z,99143.22
2019-01-02T17:40:46.594Z,99142.80
2019-01-02T17:43:15.481Z,99148.63
2019-01-02T17:45:44.190Z,99144.67
2019-01-02T17:48:13.116Z,99145.86
2019-01-02T17:50:42.453Z,99144.56
2019-01-02T17:53:11.783Z,99153.06
2019-01-02T17:55:41.111Z,99157.77
2019-01-02T17:58:10.454Z,99154.86
2019-01-02T18:00:39.782Z,99154.77
2019-01-02T18:03:09.110Z,99156.63
2019-01-02T18:05:37.746Z,99159.38
2019-01-02T18:08:06.274Z,99163.03
2019-01-02T18:10:34.816Z,99160.43
2019-01-02T18:13:03.354Z,99164.24
2019-01-02T18:15:32.980Z,99164.28
2019-01-02T18:18:01.954Z,99160.63
2019-01-02T18:20:30.467Z,99163.72
2019-01-02T18:22:59.784Z,99168.28
2019-01-02T18:25:29.111Z,99167.63
2019-01-02T18:27:58.459Z,99171.44
2019-01-02T18:30:27.791Z,99169.54
2019-01-02T18:32:56.313Z,99179.25
2019-01-02T18:35:24.763Z,99188.30
2019-01-02T18:37:54.095Z,99188.94
2019-01-02T18:40:23.438Z,99192.81
2019-01-02T18:42:52.762Z,99194.18
2019-01-02T18:45:22.103Z,99195.47
2019-01-02T18:47:51.428Z,99193.15
2019-01-02T18:50:20.763Z,99196.07
2019-01-02T18:52:50.114Z,99193.44
2019-01-02T18:55:19.443Z,99196.36
2019-01-02T18:57:48.163Z,99205.92
2019-01-02T19:00:16.697Z,99207.56
2019-01-02T19:02:46.022Z,99203.49
2019-01-02T19:05:15.350Z,99206.88
2019-01-02T19:07:44.681Z,99215.87
2019-01-02T19:10:14.018Z,99219.53
2019-01-02T19:12:43.359Z,99219.76
2019-01-02T19:15:12.800Z,99214.36
2019-01-02T19:17:41.333Z,99216.23
2019-01-02T19:20:10.065Z,99224.63
2019-01-02T19:22:39.395Z,99230.78
2019-01-02T19:25:08.749Z,99235.80
2019-01-02T19:27:38.073Z,99229.58
2019-01-02T19:30:08.302Z,99230.08
2019-01-02T19:32:36.841Z,99228.37
2019-01-02T19:35:06.247Z,99223.47
2019-01-02T19:37:35.569Z,99224.59
2019-01-02T19:40:04.722Z,99223.60
2019-01-02T19:42:33.232Z,99221.76
2019-01-02T19:45:01.789Z,99220.97
2019-01-02T19:47:30.518Z,99221.56
2019-01-02T19:49:59.854Z,99217.56
2019-01-02T19:52:29.235Z,99217.84
2019-01-02T19:54:58.549Z,99216.55
2019-01-02T19:57:28.146Z,99217.97
2019-01-02T19:59:57.472Z,99216.01
2019-01-02T20:02:26.800Z,99219.38
2019-01-02T20:04:56.131Z,99222.36
2019-01-02T20:07:25.445Z,99222.23
2019-01-02T20:09:53.965Z,99220.42
2019-01-02T20:12:23.306Z,99224.23
2019-01-02T20:14:52.630Z,99223.19
2019-01-02T20:17:21.996Z,99227.39
2019-01-02T20:19:50.512Z,99224.98
2019-01-02T20:22:19.148Z,99228.64
2019-01-02T20:24:48.611Z,99226.38
2019-01-02T20:27:17.962Z,99219.81
2019-01-02T20:29:47.088Z,99222.77
2019-01-02T20:32:16.409Z,99227.02
2019-01-02T20:34:45.726Z,99227.12
2019-01-02T20:37:14.361Z,99225.47
2019-01-02T20:39:43.718Z,99225.97
2019-01-02T20:42:13.054Z,99222.26
2019-01-02T20:44:42.378Z,99217.93
2019-01-02T20:47:11.716Z,99220.67
2019-01-02T20:49:41.052Z,99225.08
2019-01-02T20:52:10.375Z,99219.17
2019-01-02T20:54:39.690Z,99214.41
2019-01-02T20:57:09.023Z,99210.12
2019-01-02T20:59:37.554Z,99208.94
2019-01-02T21:02:06.180Z,99199.70
2019-01-02T21:04:35.494Z,99207.34
2019-01-02T21:07:04.823Z,99207.84
2019-01-02T21:09:34.149Z,99214.47
2019-01-02T21:12:03.547Z,99207.91
2019-01-02T21:14:32.873Z,99217.25
2019-01-02T21:17:02.182Z,99212.77
2019-01-02T21:19:31.507Z,99213.12
2019-01-02T21:22:00.825Z,99206.70
2019-01-02T21:24:29.452Z,99208.70
2019-01-02T21:26:57.972Z,99210.75
2019-01-02T21:29:27.289Z,99210.52
2019-01-02T21:31:56.605Z,99212.28
2019-01-02T21:34:25.937Z,99204.84
2019-01-02T21:36:55.316Z,99205.42
2019-01-02T21:39:24.641Z,99211.25
2019-01-02T21:41:53.163Z,99214.83
2019-01-02T21:44:22.500Z,99209.45
2019-01-02T21:46:51.842Z,99218.80
2019-01-02T21:49:21.237Z,99217.11
2019-01-02T21:51:49.696Z,99219.30
2019-01-02T21:54:18.214Z,99223.64
2019-01-02T21:56:47.546Z,99219.09
2019-01-02T21:59:16.878Z,99215.69
2019-01-02T22:01:46.197Z,99226.46
2019-01-02T22:04:15.590Z,99223.00
2019-01-02T22:06:44.906Z,99222.64
2019-01-02T22:09:14.239Z,99226.46
2019-01-02T22:11:43.561Z,99233.97
2019-01-02T22:14:12.086Z,99224.95
2019-01-02T22:16:41.413Z,99226.40
2019-01-02T22:19:09.939Z,99232.93
2019-01-02T22:21:39.266Z,99229.30
2019-01-02T22:24:07.779Z,99231.23
2019-01-02T22:26:37.215Z,99235.36
2019-01-02T22:29:06.858Z,99234.48
2019-01-02T22:31:35.289Z,99234.70
2019-01-02T22:34:03.810Z,99230.48
2019-01-02T22:36:33.122Z,99235.16
2019-01-02T22:39:03.934Z,99235.89
2019-01-02T22:41:32.446Z,99240.27
2019-01-02T22:44:01.766Z,99238.47
2019-01-02T22:46:31.070Z,99237.31
2019-01-02T22:49:00.414Z,99243.09
2019-01-02T22:51:29.738Z,99239.58
2019-01-02T22:53:59.071Z,99240.66
2019-01-02T22:56:28.413Z,99241.16
2019-01-02T22:58:57.718Z,99239.11
2019-01-02T23:01:46.512Z,99235.78
2019-01-02T23:04:34.478Z,99237.55
2019-01-02T23:07:22.561Z,99241.03
2019-01-02T23:10:10.547Z,99232.36
2019-01-02T23:12:50.794Z,99235.11
2019-01-02T23:15:38.760Z,99235.30
2019-01-02T23:18:26.744Z,99237.55
2019-01-02T23:21:14.713Z,99238.76
2019-01-02T23:24:02.737Z,99242.53
2019-01-02T23:26:51.709Z,99246.82
2019-01-02T23:29:39.734Z,99246.36
2019-01-02T23:32:27.715Z,99248.40
2019-01-02T23:35:15.638Z,99245.80
2019-01-02T23:38:03.721Z,99248.18
2019-01-02T23:40:51.598Z,99248.31
2019-01-02T23:43:40.378Z,99248.77
2019-01-02T23:46:28.255Z,99250.92
2019-01-02T23:49:16.330Z,99253.80
2019-01-02T23:52:04.243Z,99267.83
2019-01-02T23:54:52.233Z,99268.77
2019-01-02T23:57:40.205Z,99268.96
